Time;durP1;ratioP1;P1;durP2;ratioP2;P2;SDS_P1;SDS_P2;PMS_P1;PMS_P2;Temp;Humidity;BMP_temperature;BMP_pressure;BME280_temperature;BME280_humidity;BME280_pressure;Samples;Min_cycle;Max_cycle;Signal;HPM_P1;HPM_P2
2021/07/08 00:00:08;;;;;;;4.63;2.30;;;16.90;99.90;;;;;;6237497;28;20116;-83
2021/07/08 00:03:09;;;;;;;3.60;2.42;;;17.00;99.90;;;;;;6237483;28;20399;-83
2021/07/08 00:06:10;;;;;;;4.40;2.30;;;16.90;99.90;;;;;;6236846;28;20539;-82
2021/07/08 00:09:10;;;;;;;4.45;2.75;;;16.90;99.90;;;;;;6220622;28;20429;-82
2021/07/08 00:12:11;;;;;;;3.50;2.30;;;16.90;99.90;;;;;;6236556;28;20135;-79
2021/07/08 00:15:13;;;;;;;3.88;2.50;;;16.80;99.90;;;;;;6236812;28;20033;-82
2021/07/08 00:18:14;;;;;;;2.35;2.10;;;16.80;99.90;;;;;;6237040;28;20055;-79
2021/07/08 00:21:14;;;;;;;3.95;2.22;;;16.80;99.90;;;;;;6236875;28;20032;-80
2021/07/08 00:24:15;;;;;;;2.20;2.00;;;16.80;99.90;;;;;;6252946;28;20033;-83
2021/07/08 00:27:15;;;;;;;3.22;2.00;;;16.80;99.90;;;;;;6237086;28;20021;-83
2021/07/08 00:30:17;;;;;;;4.15;2.05;;;16.80;99.90;;;;;;6236453;28;20036;-80
2021/07/08 00:33:17;;;;;;;8.57;3.67;;;16.70;99.90;;;;;;6236321;28;20044;-80
2021/07/08 00:36:18;;;;;;;2.33;2.13;;;16.70;99.90;;;;;;6236260;28;20112;-80
2021/07/08 00:39:19;;;;;;;4.15;2.10;;;16.70;99.90;;;;;;6235487;28;20024;-83
2021/07/08 00:42:19;;;;;;;5.38;2.10;;;16.60;99.90;;;;;;6236438;28;20033;-81
2021/07/08 00:45:20;;;;;;;4.03;2.33;;;16.60;99.90;;;;;;6268914;28;20036;-80
2021/07/08 00:48:21;;;;;;;4.60;2.30;;;16.70;99.90;;;;;;6252550;28;20581;-79
2021/07/08 00:51:22;;;;;;;2.25;1.80;;;16.70;99.90;;;;;;6235509;28;20066;-80
2021/07/08 00:54:22;;;;;;;2.15;1.90;;;16.80;99.90;;;;;;6235784;28;20029;-80
2021/07/08 00:57:23;;;;;;;2.47;2.00;;;16.70;99.90;;;;;;6235913;28;20027;-80
2021/07/08 01:00:26;;;;;;;2.50;2.30;;;16.80;99.90;;;;;;6235429;28;20099;-82
2021/07/08 01:03:27;;;;;;;6.53;2.45;;;16.70;99.90;;;;;;6235833;28;20463;-80
2021/07/08 01:06:27;;;;;;;4.88;2.20;;;16.70;99.90;;;;;;6235604;28;20053;-80
2021/07/08 01:09:28;;;;;;;3.95;2.33;;;16.70;99.90;;;;;;6252017;28;20386;-80
2021/07/08 01:12:28;;;;;;;3.28;2.20;;;16.70;99.90;;;;;;6235059;28;20059;-79
2021/07/08 01:15:29;;;;;;;2.45;1.85;;;16.70;99.90;;;;;;6235303;28;20037;-82
2021/07/08 01:18:29;;;;;;;2.88;2.10;;;16.70;99.90;;;;;;6235248;28;20028;-80
2021/07/08 01:21:34;;;;;;;2.78;2.15;;;16.80;99.90;;;;;;6252081;28;20111;-80
2021/07/08 01:24:35;;;;;;;2.88;2.17;;;16.80;99.90;;;;;;6235583;28;20111;-82
2021/07/08 01:27:36;;;;;;;2.65;2.20;;;16.90;99.90;;;;;;6251624;28;20036;-79
2021/07/08 01:30:36;;;;;;;3.75;2.30;;;16.80;99.90;;;;;;6251572;28;20036;-82
2021/07/08 01:33:37;;;;;;;3.35;2.70;;;16.80;99.90;;;;;;6251298;28;20037;-79
2021/07/08 01:36:37;;;;;;;2.22;2.00;;;16.80;99.90;;;;;;6251807;28;20032;-80
2021/07/08 01:39:38;;;;;;;2.70;2.20;;;16.80;99.90;;;;;;6267730;28;20039;-79
2021/07/08 01:42:39;;;;;;;4.10;2.15;;;16.80;99.90;;;;;;6234815;28;20398;-80
2021/07/08 01:45:39;;;;;;;3.67;2.10;;;16.70;99.90;;;;;;6234604;28;20028;-81
2021/07/08 01:48:40;;;;;;;4.95;2.17;;;16.70;99.90;;;;;;6234589;28;20043;-81
2021/07/08 01:51:42;;;;;;;3.08;1.90;;;16.70;99.90;;;;;;6234470;28;20028;-81
2021/07/08 01:54:43;;;;;;;1.80;1.70;;;16.70;99.90;;;;;;6251357;28;20032;-80
2021/07/08 01:57:45;;;;;;;3.08;2.00;;;16.70;99.90;;;;;;6251017;28;20037;-79
2021/07/08 02:00:46;;;;;;;4.07;2.78;;;16.70;99.90;;;;;;6234220;28;20035;-82
2021/07/08 02:03:47;;;;;;;2.13;1.70;;;16.60;99.90;;;;;;6234483;28;20059;-81
2021/07/08 02:06:48;;;;;;;2.05;1.75;;;16.60;99.90;;;;;;6234212;28;20049;-79
2021/07/08 02:09:48;;;;;;;2.70;2.28;;;16.50;99.90;;;;;;6250611;28;20055;-79
2021/07/08 02:12:49;;;;;;;3.60;1.90;;;16.50;99.90;;;;;;6233514;28;20106;-80
2021/07/08 02:15:49;;;;;;;2.22;1.95;;;16.40;99.90;;;;;;6233593;28;20078;-82
2021/07/08 02:18:50;;;;;;;4.07;2.00;;;16.50;99.90;;;;;;6249652;28;20033;-80
2021/07/08 02:21:51;;;;;;;5.20;1.95;;;16.50;99.90;;;;;;6234166;28;20059;-80
2021/07/08 02:24:51;;;;;;;2.00;1.75;;;16.40;99.90;;;;;;6268844;28;20036;-79
2021/07/08 02:27:52;;;;;;;3.40;2.03;;;16.40;99.90;;;;;;6233723;28;20030;-80
2021/07/08 02:30:53;;;;;;;2.42;2.00;;;16.40;99.90;;;;;;6233782;28;20441;-79
2021/07/08 02:33:54;;;;;;;2.40;2.08;;;16.40;99.90;;;;;;6250035;28;20028;-80
2021/07/08 02:36:54;;;;;;;2.88;2.47;;;16.40;99.90;;;;;;6266704;28;20028;-82
2021/07/08 02:39:55;;;;;;;4.70;2.75;;;16.40;99.90;;;;;;6217186;28;20061;-80
2021/07/08 02:42:56;;;;;;;3.58;2.03;;;16.40;99.90;;;;;;6233926;28;20052;-80
2021/07/08 02:45:56;;;;;;;2.30;2.10;;;16.50;99.90;;;;;;6233583;28;20070;-82
2021/07/08 02:48:57;;;;;;;4.10;2.20;;;16.50;99.90;;;;;;6233587;28;20606;-82
2021/07/08 02:51:58;;;;;;;4.20;2.50;;;16.50;99.90;;;;;;6217292;28;20036;-80
2021/07/08 02:54:58;;;;;;;5.70;2.67;;;16.50;99.90;;;;;;6232970;28;20467;-82
2021/07/08 02:57:59;;;;;;;5.68;2.60;;;16.50;99.90;;;;;;6217253;28;20033;-80
2021/07/08 03:01:00;;;;;;;3.28;2.20;;;16.40;99.90;;;;;;6269749;28;20029;-80
2021/07/08 03:04:00;;;;;;;6.00;2.40;;;16.40;99.90;;;;;;6255065;28;20029;-82
2021/07/08 03:07:01;;;;;;;4.70;2.20;;;16.30;99.90;;;;;;6254894;28;20036;-82
2021/07/08 03:10:02;;;;;;;6.35;2.38;;;16.20;99.90;;;;;;6238140;28;20037;-82
2021/07/08 03:13:02;;;;;;;4.63;3.13;;;16.30;99.90;;;;;;6221330;28;20053;-80
2021/07/08 03:16:05;;;;;;;5.75;2.60;;;16.30;99.90;;;;;;6254517;28;20644;-80
2021/07/08 03:19:06;;;;;;;4.15;2.20;;;16.30;99.90;;;;;;6254529;28;20025;-80
2021/07/08 03:22:07;;;;;;;5.10;2.40;;;16.30;99.90;;;;;;6237955;28;20037;-81
2021/07/08 03:25:08;;;;;;;4.60;2.50;;;16.30;99.90;;;;;;6238038;28;20041;-81
2021/07/08 03:28:09;;;;;;;4.17;2.90;;;16.30;99.90;;;;;;6237918;28;20072;-79
2021/07/08 03:31:09;;;;;;;5.63;2.70;;;16.30;99.90;;;;;;6237836;28;20291;-80
2021/07/08 03:34:10;;;;;;;4.07;2.70;;;16.30;99.90;;;;;;6237312;28;20036;-81
2021/07/08 03:37:11;;;;;;;4.45;2.47;;;16.30;99.90;;;;;;6254239;28;20032;-81
2021/07/08 03:40:12;;;;;;;7.10;2.80;;;16.20;99.90;;;;;;6254109;28;20035;-80
2021/07/08 03:43:13;;;;;;;4.43;2.60;;;16.20;99.90;;;;;;6237351;28;20036;-81
2021/07/08 03:46:13;;;;;;;7.60;2.70;;;16.10;99.90;;;;;;6238000;28;20065;-81
2021/07/08 03:49:15;;;;;;;3.38;2.63;;;16.10;99.90;;;;;;6254161;28;20028;-83
2021/07/08 03:52:15;;;;;;;3.07;2.60;;;16.10;99.90;;;;;;6237621;28;20626;-82
2021/07/08 03:55:18;;;;;;;3.65;2.75;;;16.10;99.90;;;;;;6253980;28;20028;-80
2021/07/08 03:58:18;;;;;;;3.88;2.40;;;16.20;99.90;;;;;;6237394;28;20466;-79
2021/07/08 04:01:19;;;;;;;3.28;2.78;;;16.20;99.90;;;;;;6237088;28;20036;-80
2021/07/08 04:04:20;;;;;;;6.47;2.60;;;16.20;99.90;;;;;;6237860;28;20463;-81
2021/07/08 04:07:21;;;;;;;5.60;2.80;;;16.10;99.90;;;;;;6236994;28;20436;-80
2021/07/08 04:10:22;;;;;;;5.10;2.88;;;16.10;99.90;;;;;;6253698;28;20029;-80
2021/07/08 04:13:23;;;;;;;3.75;2.70;;;16.10;99.90;;;;;;6239403;28;20060;-80
2021/07/08 04:16:23;;;;;;;3.85;3.08;;;16.10;99.90;;;;;;6269831;28;20460;-81
2021/07/08 04:19:24;;;;;;;5.65;2.67;;;16.10;99.90;;;;;;6236809;28;20029;-81
2021/07/08 04:22:24;;;;;;;13.38;3.13;;;16.10;99.90;;;;;;6253291;28;20033;-82
2021/07/08 04:25:25;;;;;;;6.35;2.90;;;16.10;99.90;;;;;;6236941;28;20386;-83
2021/07/08 04:28:26;;;;;;;3.63;2.63;;;16.10;99.90;;;;;;6236493;28;20039;-80
2021/07/08 04:31:26;;;;;;;6.68;3.17;;;16.10;99.90;;;;;;6236649;28;20106;-82
2021/07/08 04:34:27;;;;;;;4.07;2.83;;;16.10;99.90;;;;;;6219581;28;20076;-83
2021/07/08 04:37:27;;;;;;;6.22;2.88;;;16.00;99.90;;;;;;6252962;28;20029;-81
2021/07/08 04:40:28;;;;;;;3.25;2.63;;;16.00;99.90;;;;;;6220262;28;20486;-79
2021/07/08 04:43:29;;;;;;;3.67;3.20;;;16.00;99.90;;;;;;6236243;28;20063;-77
2021/07/08 04:46:29;;;;;;;5.30;2.80;;;16.00;99.90;;;;;;6252783;28;20029;-78
2021/07/08 04:49:30;;;;;;;5.28;2.85;;;16.00;99.90;;;;;;6252388;28;20056;-77
2021/07/08 04:52:31;;;;;;;4.75;2.92;;;16.00;99.90;;;;;;6252610;28;20116;-81
2021/07/08 04:55:31;;;;;;;3.50;3.20;;;16.10;99.90;;;;;;6235930;28;20059;-80
2021/07/08 04:58:32;;;;;;;5.65;3.28;;;16.10;99.90;;;;;;6236045;28;20029;-80
2021/07/08 05:01:33;;;;;;;3.13;2.83;;;16.20;99.90;;;;;;6235588;28;20413;-80
2021/07/08 05:04:33;;;;;;;4.38;3.30;;;16.20;99.90;;;;;;6235698;28;20364;-78
2021/07/08 05:07:35;;;;;;;4.20;3.20;;;16.30;99.90;;;;;;6270435;28;20029;-78
2021/07/08 05:10:35;;;;;;;3.50;3.00;;;16.30;99.90;;;;;;6235939;28;20029;-80
2021/07/08 05:13:36;;;;;;;3.92;3.10;;;16.30;99.90;;;;;;6235273;28;20041;-79
2021/07/08 05:16:36;;;;;;;4.60;3.40;;;16.30;99.90;;;;;;6251817;28;20029;-78
2021/07/08 05:19:37;;;;;;;3.50;2.95;;;16.30;99.90;;;;;;6269873;28;20031;-80
2021/07/08 05:22:38;;;;;;;4.05;3.33;;;16.40;99.90;;;;;;6235052;28;20033;-79
2021/07/08 05:25:38;;;;;;;5.80;3.58;;;16.50;99.90;;;;;;6235447;28;20029;-78
2021/07/08 05:28:39;;;;;;;4.20;3.50;;;16.70;99.90;;;;;;6234931;28;20039;-79
2021/07/08 05:31:39;;;;;;;5.25;3.33;;;16.80;99.90;;;;;;6235379;28;20040;-79
2021/07/08 05:34:41;;;;;;;5.68;3.72;;;17.00;99.90;;;;;;6234972;28;20056;-81
2021/07/08 05:37:41;;;;;;;3.63;3.30;;;17.20;99.90;;;;;;6235166;28;20037;-78
2021/07/08 05:40:42;;;;;;;3.50;3.15;;;17.30;99.90;;;;;;6251440;28;20159;-80
2021/07/08 05:43:43;;;;;;;4.72;3.30;;;17.30;99.90;;;;;;6234764;28;20474;-83
2021/07/08 05:46:43;;;;;;;4.90;3.20;;;17.30;99.90;;;;;;6234665;28;20470;-80
2021/07/08 05:49:44;;;;;;;4.22;3.50;;;17.30;99.90;;;;;;6234742;28;20389;-81
2021/07/08 05:52:44;;;;;;;4.45;3.30;;;17.30;99.90;;;;;;6251076;28;20532;-79
2021/07/08 05:55:45;;;;;;;3.67;3.30;;;17.30;99.90;;;;;;6234435;28;20029;-82
2021/07/08 05:58:45;;;;;;;5.05;3.47;;;17.20;99.90;;;;;;6250995;28;20461;-81
2021/07/08 06:01:46;;;;;;;5.75;3.90;;;17.20;99.90;;;;;;6233994;28;20044;-80
2021/07/08 06:04:46;;;;;;;4.35;3.67;;;17.20;99.90;;;;;;6250827;28;20028;-78
2021/07/08 06:07:47;;;;;;;4.07;3.17;;;17.30;99.90;;;;;;6234223;28;20107;-81
2021/07/08 06:10:48;;;;;;;3.38;3.08;;;17.30;99.90;;;;;;6250372;28;20112;-78
2021/07/08 06:13:48;;;;;;;4.50;3.00;;;17.40;99.90;;;;;;6250327;28;20492;-79
2021/07/08 06:16:49;;;;;;;4.20;2.92;;;17.40;99.90;;;;;;6268226;28;20032;-82
2021/07/08 06:19:49;;;;;;;3.25;2.80;;;17.50;99.90;;;;;;6234635;28;20033;-82
2021/07/08 06:22:50;;;;;;;3.63;2.67;;;17.50;99.90;;;;;;6250510;28;20067;-79
2021/07/08 06:25:51;;;;;;;3.20;2.90;;;17.60;99.90;;;;;;6233956;28;20417;-81
2021/07/08 06:28:51;;;;;;;4.28;3.10;;;17.70;99.90;;;;;;6250407;28;20478;-82
2021/07/08 06:31:52;;;;;;;3.53;3.08;;;17.60;99.90;;;;;;6234004;28;20128;-77
2021/07/08 06:34:52;;;;;;;4.10;2.78;;;17.60;99.90;;;;;;6233197;28;20040;-78
2021/07/08 06:37:53;;;;;;;6.75;3.50;;;17.70;99.90;;;;;;6267921;28;20111;-78
2021/07/08 06:40:54;;;;;;;3.47;3.05;;;17.80;99.90;;;;;;6250225;28;20063;-77
2021/07/08 06:43:54;;;;;;;3.25;2.95;;;17.80;99.90;;;;;;6233655;28;20090;-80
2021/07/08 06:46:55;;;;;;;3.10;2.80;;;17.90;99.90;;;;;;6283397;28;20061;-77
2021/07/08 06:49:55;;;;;;;5.18;2.60;;;18.00;99.90;;;;;;6249956;28;20114;-79
2021/07/08 06:52:56;;;;;;;3.58;2.70;;;18.00;99.90;;;;;;6233927;28;20475;-78
2021/07/08 06:55:57;;;;;;;7.70;3.00;;;18.20;99.90;;;;;;6233376;28;20359;-78
2021/07/08 06:58:57;;;;;;;3.92;2.55;;;18.40;99.90;;;;;;6233680;28;20029;-78
2021/07/08 07:01:58;;;;;;;3.10;2.80;;;18.70;99.90;;;;;;6249699;28;20029;-80
2021/07/08 07:04:58;;;;;;;3.10;2.50;;;18.90;99.90;;;;;;6233272;28;20147;-78
2021/07/08 07:07:59;;;;;;;3.20;2.33;;;19.10;99.90;;;;;;6216997;28;20438;-78
2021/07/08 07:11:00;;;;;;;3.05;2.50;;;19.30;99.90;;;;;;6267039;28;20075;-78
2021/07/08 07:14:00;;;;;;;4.28;2.63;;;19.50;99.90;;;;;;6233462;28;20044;-77
2021/07/08 07:17:01;;;;;;;2.45;2.22;;;19.60;99.90;;;;;;6249321;28;20033;-81
2021/07/08 07:20:05;;;;;;;5.40;2.63;;;19.80;99.90;;;;;;6233282;28;20111;-75
2021/07/08 07:23:06;;;;;;;3.65;2.47;;;19.90;99.90;;;;;;6219106;28;20116;-77
2021/07/08 07:26:06;;;;;;;5.32;2.70;;;20.00;99.90;;;;;;6267583;28;20035;-75
2021/07/08 07:29:07;;;;;;;5.40;2.97;;;20.10;99.90;;;;;;6249518;28;20029;-75
2021/07/08 07:32:08;;;;;;;12.40;3.50;;;20.10;99.90;;;;;;6265594;28;20044;-75
2021/07/08 07:35:21;;;;;;;5.55;3.20;;;20.20;99.90;;;;;;6267407;28;20117;-75
2021/07/08 07:38:22;;;;;;;8.05;3.33;;;20.20;99.90;;;;;;6233277;28;20090;-76
2021/07/08 07:41:23;;;;;;;4.00;2.65;;;20.20;99.90;;;;;;6249258;28;20032;-75
2021/07/08 07:44:23;;;;;;;4.45;2.78;;;20.20;99.90;;;;;;6248018;28;20042;-75
2021/07/08 07:47:26;;;;;;;7.75;3.22;;;20.20;99.90;;;;;;6268991;28;20044;-75
2021/07/08 07:50:30;;;;;;;3.17;2.65;;;20.10;99.90;;;;;;6252697;28;20024;-76
2021/07/08 07:53:31;;;;;;;5.20;2.95;;;20.00;99.90;;;;;;6238031;28;20103;-75
2021/07/08 07:56:32;;;;;;;6.68;3.08;;;19.90;99.90;;;;;;6271017;28;20036;-78
2021/07/08 07:59:32;;;;;;;5.93;2.88;;;19.80;99.90;;;;;;6235295;28;20036;-76
2021/07/08 08:02:33;;;;;;;4.05;3.28;;;19.60;99.90;;;;;;6270781;28;20079;-79
2021/07/08 08:05:38;;;;;;;3.58;2.92;;;19.50;99.90;;;;;;6253717;28;20490;-76
2021/07/08 08:08:38;;;;;;;5.13;3.03;;;19.40;99.90;;;;;;6271217;28;20592;-76
2021/07/08 08:11:39;;;;;;;7.35;3.60;;;19.30;99.90;;;;;;6251267;28;20049;-82
2021/07/08 08:14:40;;;;;;;4.90;3.33;;;19.20;99.90;;;;;;6236626;28;20462;-83
2021/07/08 08:17:41;;;;;;;4.18;3.10;;;19.20;99.90;;;;;;6235036;28;20032;-76
2021/07/08 08:20:42;;;;;;;6.55;3.10;;;19.10;99.90;;;;;;6221963;28;20528;-87
2021/07/08 08:23:42;;;;;;;5.57;3.40;;;19.00;99.90;;;;;;6237631;28;20033;-80
2021/07/08 08:26:43;;;;;;;6.32;3.50;;;18.90;99.90;;;;;;6272303;28;20466;-85
2021/07/08 08:29:44;;;;;;;4.35;2.75;;;18.80;99.90;;;;;;6252626;28;20372;-86
2021/07/08 08:32:45;;;;;;;4.47;3.33;;;18.80;99.90;;;;;;6236397;28;20087;-85
2021/07/08 08:35:45;;;;;;;5.93;3.00;;;18.80;99.90;;;;;;6236597;28;20029;-80
2021/07/08 08:38:46;;;;;;;6.45;3.25;;;18.90;99.90;;;;;;6220638;28;20492;-88
2021/07/08 08:41:47;;;;;;;4.28;3.30;;;19.00;99.90;;;;;;6237489;28;20080;-88
2021/07/08 08:44:47;;;;;;;5.60;3.83;;;19.10;99.90;;;;;;6235547;28;20418;-86
2021/07/08 08:48:07;;;;;;;5.85;3.60;;;19.30;99.90;;;;;;6236078;28;20435;-85
2021/07/08 08:51:08;;;;;;;5.60;4.03;;;19.40;99.90;;;;;;6252001;28;20040;-87
2021/07/08 08:54:08;;;;;;;3.80;3.35;;;19.30;99.90;;;;;;6251888;28;20048;-84
2021/07/08 08:57:09;;;;;;;4.70;3.30;;;19.40;99.90;;;;;;6268466;28;20033;-84
2021/07/08 09:00:30;;;;;;;4.35;3.55;;;19.50;99.90;;;;;;6234160;28;20021;-86
2021/07/08 09:03:32;;;;;;;4.28;3.38;;;19.60;99.90;;;;;;6264516;28;20033;-85
2021/07/08 09:06:37;;;;;;;4.32;3.35;;;19.70;99.90;;;;;;6218502;28;20036;-84
2021/07/08 09:09:37;;;;;;;5.57;3.40;;;19.90;99.90;;;;;;6250744;28;20025;-84
2021/07/08 09:12:38;;;;;;;3.95;3.00;;;19.90;99.90;;;;;;6235065;28;20394;-86
2021/07/08 09:15:39;;;;;;;5.05;3.65;;;19.90;99.90;;;;;;6236172;28;20391;-84
2021/07/08 09:18:40;;;;;;;4.50;3.13;;;19.90;99.90;;;;;;6236080;28;20029;-84
2021/07/08 09:21:47;;;;;;;4.80;3.50;;;19.90;99.90;;;;;;6235656;28;20033;-85
2021/07/08 09:24:48;;;;;;;3.97;3.20;;;20.00;99.90;;;;;;6247989;28;20127;-82
2021/07/08 09:28:28;;;;;;;4.95;3.80;;;20.30;99.90;;;;;;6219586;28;20086;-86
2021/07/08 09:31:29;;;;;;;3.92;3.50;;;20.60;99.90;;;;;;6268994;28;20091;-89
2021/07/08 09:34:34;;;;;;;4.32;3.50;;;20.90;99.90;;;;;;6236676;28;20029;-80
2021/07/08 09:37:55;;;;;;;4.00;3.50;;;21.10;99.90;;;;;;6219985;28;20551;-90
2021/07/08 09:45:23;;;;;;;6.28;3.65;;;21.10;99.90;;;;;;6230772;28;20037;-88
2021/07/08 09:48:57;;;;;;;4.20;3.67;;;21.00;99.90;;;;;;6252970;28;20036;-90
2021/07/08 09:59:22;;;;;;;5.85;3.45;;;21.60;99.90;;;;;;6104915;29;20474;-81
2021/07/08 10:02:33;;;;;;;3.92;3.25;;;21.80;99.90;;;;;;6089041;29;20079;-80
2021/07/08 10:05:37;;;;;;;5.22;3.80;;;21.90;99.90;;;;;;6088663;29;20139;-80
2021/07/08 10:08:38;;;;;;;5.70;4.05;;;22.10;99.90;;;;;;6104852;29;20048;-80
2021/07/08 10:11:38;;;;;;;5.32;3.97;;;22.00;99.90;;;;;;6103627;29;20056;-81
2021/07/08 10:14:39;;;;;;;9.15;4.00;;;21.80;99.90;;;;;;6119610;29;20044;-81
2021/07/08 10:17:39;;;;;;;6.43;4.00;;;21.80;99.90;;;;;;6122765;29;20035;-81
2021/07/08 10:20:41;;;;;;;7.57;4.07;;;21.50;99.90;;;;;;6111830;29;20586;-81
2021/07/08 10:23:41;;;;;;;4.18;3.78;;;21.20;99.90;;;;;;6111548;29;20035;-80
2021/07/08 10:26:45;;;;;;;5.05;3.90;;;20.90;99.90;;;;;;6189761;28;20033;-83
2021/07/08 10:29:53;;;;;;;4.45;3.60;;;20.60;99.90;;;;;;6234981;28;20048;-87
2021/07/08 10:32:57;;;;;;;5.82;3.40;;;20.20;99.90;;;;;;6234572;28;20040;-86
2021/07/08 10:35:58;;;;;;;6.68;4.05;;;20.00;99.90;;;;;;6235487;28;20028;-87
2021/07/08 10:39:10;;;;;;;7.30;3.70;;;19.70;99.90;;;;;;6234888;28;20110;-86
2021/07/08 10:42:11;;;;;;;6.43;3.38;;;19.60;99.90;;;;;;6235267;28;20043;-86
2021/07/08 10:45:26;;;;;;;6.32;3.75;;;19.40;99.90;;;;;;6245015;28;20029;-86
2021/07/08 10:48:36;;;;;;;4.40;3.40;;;19.30;99.90;;;;;;6251194;28;20120;-86
2021/07/08 10:51:38;;;;;;;3.55;3.25;;;19.20;99.90;;;;;;6235686;28;20066;-87
2021/07/08 10:54:46;;;;;;;4.40;3.17;;;19.20;99.90;;;;;;6250340;28;20091;-84
2021/07/08 10:57:47;;;;;;;3.78;2.85;;;19.00;99.90;;;;;;6250746;28;20039;-86
2021/07/08 11:00:48;;;;;;;5.70;3.05;;;18.90;99.90;;;;;;6234110;28;20029;-85
2021/07/08 11:03:50;;;;;;;5.40;3.25;;;18.80;99.90;;;;;;6249269;28;20025;-85
2021/07/08 11:06:50;;;;;;;3.57;3.10;;;18.80;99.90;;;;;;6234914;28;20029;-86
2021/07/08 11:09:59;;;;;;;8.80;2.72;;;18.80;99.90;;;;;;6234599;28;20310;-88
2021/07/08 11:13:29;;;;;;;4.18;3.22;;;18.90;99.90;;;;;;6239976;28;20075;-87
2021/07/08 11:16:45;;;;;;;4.32;3.08;;;18.90;99.90;;;;;;6246768;28;20040;-85
2021/07/08 11:19:47;;;;;;;3.00;2.70;;;19.00;99.90;;;;;;6235257;28;20032;-89
2021/07/08 11:22:48;;;;;;;;;;;18.90;99.90;;;;;;6239055;28;20029;-88
2021/07/08 11:25:48;;;;;;;2.85;2.53;;;18.80;99.90;;;;;;6273052;28;20546;-88
2021/07/08 11:28:58;;;;;;;3.90;2.60;;;18.70;99.90;;;;;;6229198;28;20043;-82
2021/07/08 11:31:59;;;;;;;5.50;2.60;;;18.70;99.90;;;;;;6239402;28;20083;-81
2021/07/08 11:35:10;;;;;;;2.92;2.42;;;18.60;99.90;;;;;;6221349;28;20029;-81
2021/07/08 11:38:15;;;;;;;2.88;2.40;;;18.50;99.90;;;;;;6256020;28;20032;-82
2021/07/08 11:41:16;;;;;;;2.83;2.50;;;18.40;99.90;;;;;;6238601;28;20095;-81
2021/07/08 11:44:16;;;;;;;3.80;2.33;;;18.30;99.90;;;;;;6237855;28;20047;-82
2021/07/08 11:47:17;;;;;;;3.83;2.63;;;18.40;99.90;;;;;;6237604;28;20040;-82
2021/07/08 11:50:20;;;;;;;2.83;2.40;;;18.50;99.90;;;;;;6237503;28;20116;-81
2021/07/08 11:53:20;;;;;;;2.95;2.60;;;18.70;99.90;;;;;;6221449;28;20482;-82
2021/07/08 11:56:26;;;;;;;2.88;2.60;;;18.90;99.90;;;;;;6237408;28;20032;-81
2021/07/08 11:59:27;;;;;;;5.90;3.30;;;19.20;99.90;;;;;;6238628;28;20025;-79
2021/07/08 12:02:37;;;;;;;3.10;2.80;;;19.40;99.90;;;;;;6271523;28;20549;-82
2021/07/08 12:05:38;;;;;;;2.83;2.63;;;19.60;99.90;;;;;;6237085;28;20506;-87
2021/07/08 12:08:42;;;;;;;3.08;2.78;;;19.80;99.90;;;;;;6237239;28;20120;-86
2021/07/08 12:11:43;;;;;;;4.30;3.28;;;20.10;99.90;;;;;;6238284;28;20053;-85
2021/07/08 12:14:44;;;;;;;3.63;3.05;;;20.30;99.90;;;;;;6220809;28;20127;-80
2021/07/08 12:17:45;;;;;;;5.00;3.00;;;20.20;99.90;;;;;;6237244;28;20499;-83
2021/07/08 12:20:47;;;;;;;3.30;3.00;;;20.10;99.90;;;;;;6253520;28;20028;-83
2021/07/08 12:23:49;;;;;;;5.55;3.38;;;20.10;99.90;;;;;;6237231;28;20035;-83
2021/07/08 12:26:49;;;;;;;4.13;3.07;;;20.10;99.90;;;;;;6237113;28;20381;-85
2021/07/08 12:29:50;;;;;;;4.25;3.40;;;20.10;99.90;;;;;;6236898;28;20033;-85
2021/07/08 12:33:11;;;;;;;4.47;3.38;;;20.10;99.90;;;;;;6235927;28;20040;-89
2021/07/08 12:36:21;;;;;;;4.43;3.85;;;20.00;99.90;;;;;;6238517;28;20032;-88
2021/07/08 12:39:25;;;;;;;4.50;4.10;;;19.80;99.90;;;;;;6237766;28;20451;-82
2021/07/08 12:42:31;;;;;;;7.35;4.28;;;19.40;99.90;;;;;;6236451;28;20028;-83
2021/07/08 12:45:32;;;;;;;5.45;3.65;;;19.20;99.90;;;;;;6236744;28;20375;-81
2021/07/08 12:48:32;;;;;;;4.10;3.67;;;19.10;99.90;;;;;;6236201;28;20048;-84
2021/07/08 12:51:33;;;;;;;4.03;3.60;;;19.00;99.90;;;;;;6236407;28;20033;-82
2021/07/08 12:54:34;;;;;;;5.10;3.37;;;18.90;99.90;;;;;;6236212;28;20033;-83
2021/07/08 12:57:35;;;;;;;4.85;3.25;;;18.90;99.90;;;;;;6236599;28;20263;-83
2021/07/08 13:00:36;;;;;;;4.43;3.25;;;19.00;99.90;;;;;;6236092;28;20454;-83
2021/07/08 13:03:39;;;;;;;5.10;3.90;;;19.00;99.90;;;;;;6252800;28;20028;-79
2021/07/08 13:06:39;;;;;;;7.00;3.88;;;19.20;99.90;;;;;;6236385;28;20445;-79
2021/07/08 13:09:40;;;;;;;5.45;3.33;;;19.30;99.90;;;;;;6235774;28;20090;-80
2021/07/08 13:12:41;;;;;;;4.28;3.10;;;19.40;99.90;;;;;;6235344;28;20149;-79
2021/07/08 13:15:46;;;;;;;6.15;3.38;;;19.30;99.90;;;;;;6251941;28;20041;-79
2021/07/08 13:18:47;;;;;;;6.82;3.25;;;19.40;99.90;;;;;;6235803;28;20037;-80
2021/07/08 13:21:47;;;;;;;4.20;2.85;;;19.40;99.90;;;;;;6235482;28;20103;-79
2021/07/08 13:24:51;;;;;;;3.72;3.17;;;19.60;99.90;;;;;;6269863;28;20565;-80
2021/07/08 13:27:53;;;;;;;5.43;3.45;;;19.60;99.90;;;;;;6235267;28;20024;-79
2021/07/08 13:31:05;;;;;;;3.42;3.00;;;19.80;99.90;;;;;;6218952;28;20059;-80
2021/07/08 13:34:06;;;;;;;3.80;2.95;;;19.90;99.90;;;;;;6251157;28;20170;-80
2021/07/08 13:37:06;;;;;;;3.15;2.85;;;20.00;99.90;;;;;;6218678;28;20028;-78
2021/07/08 13:40:09;;;;;;;4.80;3.08;;;19.90;99.90;;;;;;6218242;28;20444;-80
2021/07/08 13:43:13;;;;;;;3.83;2.67;;;19.80;99.90;;;;;;6235096;28;20029;-80
2021/07/08 13:46:15;;;;;;;3.45;3.15;;;19.70;99.90;;;;;;6234604;28;20488;-80
2021/07/08 13:49:19;;;;;;;3.70;2.83;;;19.60;99.90;;;;;;6234699;28;20025;-78
2021/07/08 13:52:22;;;;;;;3.50;2.75;;;19.50;99.90;;;;;;6268959;28;20069;-80
2021/07/08 13:55:22;;;;;;;2.97;2.78;;;19.40;99.90;;;;;;6267759;28;20172;-80
2021/07/08 13:58:23;;;;;;;6.10;3.80;;;19.40;99.90;;;;;;6234607;28;20021;-79
2021/07/08 14:01:24;;;;;;;3.08;2.70;;;19.30;99.90;;;;;;6250802;28;20068;-79
2021/07/08 14:04:24;;;;;;;6.82;3.60;;;19.30;99.90;;;;;;6234582;28;20168;-79
2021/07/08 14:07:26;;;;;;;6.57;3.53;;;19.10;99.90;;;;;;6233915;28;20029;-79
2021/07/08 14:10:26;;;;;;;4.03;3.43;;;19.10;99.90;;;;;;6234747;28;20032;-80
2021/07/08 14:13:27;;;;;;;5.20;3.42;;;19.00;99.90;;;;;;6217322;28;20792;-79
2021/07/08 14:16:28;;;;;;;3.75;3.30;;;19.00;99.90;;;;;;6232988;28;20116;-79
2021/07/08 14:19:28;;;;;;;6.22;4.05;;;19.00;99.90;;;;;;6215963;28;20060;-79
2021/07/08 14:22:29;;;;;;;5.72;3.33;;;18.90;99.90;;;;;;6232913;28;20040;-80
2021/07/08 14:25:29;;;;;;;3.75;3.35;;;18.90;99.90;;;;;;6233085;28;20025;-80
2021/07/08 14:28:30;;;;;;;4.78;3.75;;;18.80;99.90;;;;;;6249175;28;20584;-79
2021/07/08 14:31:30;;;;;;;7.32;3.83;;;18.80;99.90;;;;;;6249499;28;20433;-81
2021/07/08 14:34:31;;;;;;;7.28;3.20;;;18.80;99.90;;;;;;6249864;28;20033;-77
2021/07/08 14:37:32;;;;;;;3.75;3.13;;;18.90;99.90;;;;;;6233795;28;20056;-77
2021/07/08 14:40:34;;;;;;;4.05;3.50;;;19.10;99.90;;;;;;6234116;28;20033;-81
2021/07/08 14:43:48;;;;;;;5.53;3.45;;;19.30;99.90;;;;;;6250313;28;20029;-83
2021/07/08 14:46:53;;;;;;;5.15;3.90;;;19.20;99.90;;;;;;6233938;28;20029;-82
2021/07/08 14:49:54;;;;;;;4.53;4.10;;;19.10;99.90;;;;;;6233871;28;20398;-81
2021/07/08 14:52:54;;;;;;;4.63;3.30;;;19.00;99.90;;;;;;6233515;28;20060;-80
2021/07/08 14:55:55;;;;;;;6.90;3.67;;;19.00;99.90;;;;;;6249509;28;20033;-79
2021/07/08 14:58:56;;;;;;;5.70;3.50;;;19.00;99.90;;;;;;6233397;28;20082;-79
2021/07/08 15:01:56;;;;;;;6.22;3.35;;;19.00;99.90;;;;;;6265835;28;20025;-79
2021/07/08 15:04:57;;;;;;;7.07;3.67;;;19.00;99.90;;;;;;6249832;28;20032;-79
2021/07/08 15:07:58;;;;;;;9.38;3.92;;;18.90;99.90;;;;;;6249662;28;20029;-79
2021/07/08 15:10:59;;;;;;;5.68;3.80;;;19.00;99.90;;;;;;6247710;28;20029;-78
2021/07/08 15:14:00;;;;;;;4.95;3.35;;;19.10;99.90;;;;;;6267043;28;20025;-79
2021/07/08 15:17:01;;;;;;;5.35;4.00;;;19.10;99.90;;;;;;6249614;28;20051;-79
2021/07/08 15:20:03;;;;;;;5.97;4.35;;;18.80;99.90;;;;;;6267377;28;20079;-78
2021/07/08 15:23:04;;;;;;;4.15;3.75;;;18.70;99.90;;;;;;6217160;28;20033;-78
2021/07/08 15:26:05;;;;;;;4.85;3.65;;;18.60;99.90;;;;;;6233411;28;20079;-79
2021/07/08 15:29:06;;;;;;;4.40;4.00;;;18.50;99.90;;;;;;6249501;28;20033;-79
2021/07/08 15:32:08;;;;;;;4.53;3.53;;;18.60;99.90;;;;;;6233141;28;20037;-79
2021/07/08 15:35:10;;;;;;;4.13;3.72;;;18.50;99.90;;;;;;6249682;28;20029;-79
2021/07/08 15:38:10;;;;;;;6.25;3.78;;;18.70;99.90;;;;;;6233432;28;20115;-79
2021/07/08 15:41:11;;;;;;;3.70;3.40;;;18.90;99.90;;;;;;6233004;28;20076;-82
2021/07/08 15:44:12;;;;;;;4.78;3.58;;;19.00;99.90;;;;;;6233138;28;20378;-82
2021/07/08 15:47:12;;;;;;;5.80;3.55;;;19.00;99.90;;;;;;6232563;28;20029;-82
2021/07/08 15:50:13;;;;;;;4.25;3.80;;;19.00;99.90;;;;;;6233191;28;20474;-83
2021/07/08 15:53:15;;;;;;;5.38;3.20;;;18.90;99.90;;;;;;6248307;28;20045;-84
2021/07/08 15:56:16;;;;;;;;;;;19.10;99.90;;;;;;6233911;28;20467;-83
2021/07/08 15:59:20;;;;;;;20.27;6.05;;;19.20;99.90;;;;;;6249468;28;19911;-86